createdAt,value
2022-10-28T00:02:19.264Z,964.60
2022-10-28T00:04:45.562Z,964.52
2022-10-28T00:07:11.897Z,964.52
2022-10-28T00:09:38.269Z,964.53
2022-10-28T00:12:04.584Z,964.56
2022-10-28T00:14:30.929Z,964.49
2022-10-28T00:16:57.272Z,964.51
2022-10-28T00:19:23.637Z,964.48
2022-10-28T00:21:49.972Z,964.47
2022-10-28T00:24:16.317Z,964.46
2022-10-28T00:26:42.659Z,964.45
2022-10-28T00:29:08.978Z,964.42
2022-10-28T00:31:35.301Z,964.43
2022-10-28T00:34:01.625Z,964.37
2022-10-28T00:36:27.968Z,964.40
2022-10-28T00:38:54.316Z,964.39
2022-10-28T00:41:20.668Z,964.38
2022-10-28T00:43:47.015Z,964.36
2022-10-28T00:46:13.333Z,964.34
2022-10-28T00:48:39.681Z,964.34
2022-10-28T00:51:06.021Z,964.38
2022-10-28T00:53:32.350Z,964.39
2022-10-28T00:55:58.758Z,964.44
2022-10-28T00:58:25.092Z,964.38
2022-10-28T01:00:51.435Z,964.43
2022-10-28T01:03:17.799Z,964.44
2022-10-28T01:05:44.141Z,964.47
2022-10-28T01:08:10.458Z,964.40
2022-10-28T01:10:36.803Z,964.37
2022-10-28T01:13:03.157Z,964.43
2022-10-28T01:15:29.486Z,964.46
2022-10-28T01:17:55.851Z,964.36
2022-10-28T01:20:22.187Z,964.42
2022-10-28T01:22:48.512Z,964.36
2022-10-28T01:25:14.849Z,964.35
2022-10-28T01:27:41.194Z,964.36
2022-10-28T01:30:07.531Z,964.34
2022-10-28T01:32:33.876Z,964.35
2022-10-28T01:35:00.213Z,964.38
2022-10-28T01:37:26.561Z,964.41
2022-10-28T01:39:52.878Z,964.45
2022-10-28T01:42:19.256Z,964.51
2022-10-28T01:44:45.587Z,964.50
2022-10-28T01:47:11.932Z,964.48
2022-10-28T01:49:38.265Z,964.50
2022-10-28T01:52:04.589Z,964.53
2022-10-28T01:54:30.949Z,964.53
2022-10-28T01:56:57.294Z,964.53
2022-10-28T01:59:23.639Z,964.53
2022-10-28T02:01:50.044Z,964.52
2022-10-28T02:04:16.323Z,964.57
2022-10-28T02:06:42.648Z,964.52
2022-10-28T02:09:08.960Z,964.59
2022-10-28T02:11:35.320Z,964.54
2022-10-28T02:14:01.663Z,964.51
2022-10-28T02:16:27.983Z,964.51
2022-10-28T02:18:54.365Z,964.56
2022-10-28T02:21:20.698Z,964.55
2022-10-28T02:23:47.031Z,964.52
2022-10-28T02:26:13.376Z,964.66
2022-10-28T02:28:39.715Z,964.65
2022-10-28T02:31:06.057Z,964.62
2022-10-28T02:33:32.373Z,964.63
2022-10-28T02:35:58.753Z,964.61
2022-10-28T02:38:25.067Z,964.63
2022-10-28T02:43:17.748Z,964.69
2022-10-28T02:45:44.083Z,964.66
2022-10-28T02:48:10.440Z,964.68
2022-10-28T02:50:36.763Z,964.65
2022-10-28T02:53:03.083Z,964.62
2022-10-28T02:55:29.426Z,964.66
2022-10-28T02:57:55.961Z,964.69
2022-10-28T03:00:22.071Z,964.70
2022-10-28T03:02:48.413Z,964.74
2022-10-28T03:05:14.768Z,964.70
2022-10-28T03:07:41.105Z,964.73
2022-10-28T03:10:07.441Z,964.67
2022-10-28T03:12:33.775Z,964.71
2022-10-28T03:15:00.130Z,964.65
2022-10-28T03:17:26.456Z,964.72
2022-10-28T03:19:52.793Z,964.71
2022-10-28T03:22:19.113Z,964.66
2022-10-28T03:24:45.436Z,964.61
2022-10-28T03:27:11.810Z,964.63
2022-10-28T03:29:42.052Z,964.63
2022-10-28T03:32:04.486Z,964.68
2022-10-28T03:34:30.839Z,964.65
2022-10-28T03:36:57.183Z,964.70
2022-10-28T03:39:23.498Z,964.66
2022-10-28T03:41:50.253Z,964.56
2022-10-28T03:44:16.662Z,964.68
2022-10-28T03:46:43.048Z,964.66
2022-10-28T03:49:09.371Z,964.71
2022-10-28T03:51:35.704Z,964.66
2022-10-28T03:54:02.051Z,964.68
2022-10-28T03:56:28.402Z,964.72
2022-10-28T03:58:54.764Z,964.68
2022-10-28T04:01:21.258Z,964.80
2022-10-28T04:03:47.447Z,964.72
2022-10-28T04:06:13.794Z,964.74
2022-10-28T04:08:40.141Z,964.74
2022-10-28T04:11:06.465Z,964.74
2022-10-28T04:13:32.789Z,964.73
2022-10-28T04:15:59.110Z,964.72
2022-10-28T04:18:25.473Z,964.77
2022-10-28T04:20:51.838Z,964.76
2022-10-28T04:23:18.153Z,964.75
2022-10-28T04:25:44.542Z,964.76
2022-10-28T04:28:10.877Z,964.82
2022-10-28T04:30:37.203Z,964.83
2022-10-28T04:33:03.545Z,964.82
2022-10-28T04:35:29.868Z,964.79
2022-10-28T04:37:56.555Z,964.79
2022-10-28T04:40:22.585Z,964.77
2022-10-28T04:42:48.921Z,964.80
2022-10-28T04:45:15.307Z,964.80
2022-10-28T04:47:41.661Z,964.77
2022-10-28T04:50:07.996Z,964.75
2022-10-28T04:52:35.233Z,964.75
2022-10-28T04:55:01.603Z,964.77
2022-10-28T04:57:27.933Z,964.79
2022-10-28T04:59:54.282Z,964.81
2022-10-28T05:02:20.676Z,964.81
2022-10-28T05:04:46.956Z,964.83
2022-10-28T05:07:13.271Z,964.84
2022-10-28T05:09:39.614Z,964.83
2022-10-28T05:12:05.939Z,964.81
2022-10-28T05:14:32.279Z,964.87
2022-10-28T05:16:58.617Z,964.86
2022-10-28T05:19:24.951Z,964.90
2022-10-28T05:21:51.289Z,964.92
2022-10-28T05:24:17.668Z,964.92
2022-10-28T05:26:43.988Z,965.01
2022-10-28T05:29:10.334Z,965.01
2022-10-28T05:31:36.654Z,965.03
2022-10-28T05:34:02.975Z,965.05
2022-10-28T05:36:29.378Z,965.04
2022-10-28T05:38:55.718Z,965.04
2022-10-28T05:41:23.375Z,965.12
2022-10-28T05:43:48.396Z,965.10
2022-10-28T05:46:14.729Z,965.12
2022-10-28T05:48:41.068Z,965.14
2022-10-28T05:51:07.443Z,965.14
2022-10-28T05:53:33.784Z,965.19
2022-10-28T05:56:00.200Z,965.21
2022-10-28T05:58:26.534Z,965.18
2022-10-28T06:00:52.873Z,965.23
2022-10-28T06:03:19.287Z,965.26
2022-10-28T06:05:45.570Z,965.26
2022-10-28T06:08:11.894Z,965.26
2022-10-28T06:10:38.211Z,965.34
2022-10-28T06:13:03.048Z,965.33
2022-10-28T06:15:29.406Z,965.44
2022-10-28T06:17:55.753Z,965.44
2022-10-28T06:20:22.114Z,965.48
2022-10-28T06:22:48.440Z,965.47
2022-10-28T06:25:14.761Z,965.52
2022-10-28T06:27:41.122Z,965.48
2022-10-28T06:30:07.471Z,965.48
2022-10-28T06:32:33.800Z,965.46
2022-10-28T06:35:00.158Z,965.50
2022-10-28T06:37:26.481Z,965.51
2022-10-28T06:39:52.834Z,965.50
2022-10-28T06:42:19.178Z,965.51
2022-10-28T06:44:45.505Z,965.55
2022-10-28T06:47:13.366Z,965.49
2022-10-28T06:49:39.703Z,965.56
2022-10-28T06:52:06.045Z,965.58
2022-10-28T06:54:32.443Z,965.53
2022-10-28T06:56:58.763Z,965.57
2022-10-28T06:59:25.083Z,965.55
2022-10-28T07:01:51.536Z,965.48
2022-10-28T07:04:17.737Z,965.47
2022-10-28T07:06:46.357Z,965.50
2022-10-28T07:09:10.384Z,965.57
2022-10-28T07:11:36.708Z,965.51
2022-10-28T07:14:03.092Z,965.47
2022-10-28T07:16:29.402Z,965.48
2022-10-28T07:18:55.749Z,965.52
2022-10-28T07:21:22.094Z,965.51
2022-10-28T07:23:48.439Z,965.52
2022-10-28T07:26:14.781Z,965.52
2022-10-28T07:28:41.124Z,965.47
2022-10-28T07:31:07.496Z,965.46
2022-10-28T07:33:33.783Z,965.46
2022-10-28T07:36:00.104Z,965.48
2022-10-28T07:38:26.454Z,965.48
2022-10-28T07:40:52.793Z,965.46
2022-10-28T07:43:19.100Z,965.44
2022-10-28T07:45:45.467Z,965.49
2022-10-28T07:48:11.826Z,965.46
2022-10-28T07:50:38.144Z,965.46
2022-10-28T07:53:04.556Z,965.50
2022-10-28T07:55:30.874Z,965.42
2022-10-28T07:57:57.472Z,965.45
2022-10-28T08:00:29.431Z,965.41
2022-10-28T08:02:55.798Z,965.44
2022-10-28T08:05:22.148Z,965.39
2022-10-28T08:07:50.334Z,965.44
2022-10-28T08:10:16.686Z,965.45
2022-10-28T08:12:43.007Z,965.39
2022-10-28T08:15:09.392Z,965.44
2022-10-28T08:17:35.759Z,965.44
2022-10-28T08:20:02.104Z,965.43
2022-10-28T08:22:28.435Z,965.41
2022-10-28T08:24:54.778Z,965.47
2022-10-28T08:27:21.098Z,965.45
2022-10-28T08:29:47.429Z,965.44
2022-10-28T08:32:13.839Z,965.47
2022-10-28T08:34:42.658Z,965.38
2022-10-28T08:37:06.536Z,965.41
2022-10-28T08:39:32.856Z,965.36
2022-10-28T08:41:59.252Z,965.34
2022-10-28T08:44:25.501Z,965.33
2022-10-28T08:46:51.881Z,965.32
2022-10-28T08:49:18.200Z,965.27
2022-10-28T08:51:44.548Z,965.29
2022-10-28T08:54:10.918Z,965.28
2022-10-28T08:56:37.289Z,965.26
2022-10-28T08:59:03.642Z,965.22
2022-10-28T09:01:30.147Z,965.22
2022-10-28T09:03:56.314Z,965.16
2022-10-28T09:06:22.701Z,965.18
2022-10-28T09:08:49.045Z,965.13
2022-10-28T09:11:15.380Z,965.10
2022-10-28T09:13:41.712Z,965.04
2022-10-28T09:16:10.198Z,965.05
2022-10-28T09:18:34.448Z,965.13
2022-10-28T09:21:00.798Z,965.12
2022-10-28T09:23:27.260Z,964.97
2022-10-28T09:25:53.585Z,964.99
2022-10-28T09:28:19.933Z,964.95
2022-10-28T09:30:46.305Z,964.92
2022-10-28T09:33:12.689Z,964.89
2022-10-28T09:35:39.035Z,964.84
2022-10-28T09:38:05.359Z,964.86
2022-10-28T09:40:31.713Z,964.87
2022-10-28T09:42:58.061Z,964.79
2022-10-28T09:45:24.378Z,964.68
2022-10-28T09:47:50.909Z,964.60
2022-10-28T09:50:17.073Z,964.63
2022-10-28T09:52:43.415Z,964.60
2022-10-28T09:55:09.741Z,964.55
2022-10-28T09:57:36.078Z,964.52
2022-10-28T10:00:02.489Z,964.48
2022-10-28T10:02:28.868Z,964.48
2022-10-28T10:04:55.276Z,964.44
2022-10-28T10:07:21.603Z,964.39
2022-10-28T10:09:48.044Z,964.38
2022-10-28T10:12:14.390Z,964.38
2022-10-28T10:14:40.705Z,964.33
2022-10-28T10:17:07.083Z,964.37
2022-10-28T10:19:33.436Z,964.35
2022-10-28T10:21:59.780Z,964.30
2022-10-28T10:24:26.138Z,964.30
2022-10-28T10:26:52.449Z,964.23
2022-10-28T10:29:18.788Z,964.20
2022-10-28T10:31:45.138Z,964.15
2022-10-28T10:34:11.475Z,964.08
2022-10-28T10:36:37.797Z,964.14
2022-10-28T10:39:04.123Z,964.10
2022-10-28T10:41:30.498Z,964.05
2022-10-28T10:43:56.909Z,964.09
2022-10-28T10:46:23.236Z,964.05
2022-10-28T10:48:49.632Z,963.98
2022-10-28T10:51:15.950Z,963.99
2022-10-28T10:53:42.293Z,963.91
2022-10-28T10:56:08.653Z,963.92
2022-10-28T10:58:35.022Z,963.88
2022-10-28T11:01:01.365Z,963.83
2022-10-28T11:03:27.690Z,963.82
2022-10-28T11:06:05.496Z,963.78
2022-10-28T11:08:20.383Z,963.70
2022-10-28T11:10:46.725Z,963.77
2022-10-28T11:13:13.064Z,963.70
2022-10-28T11:15:39.408Z,963.61
2022-10-28T11:18:05.750Z,963.65
2022-10-28T11:20:32.098Z,963.63
2022-10-28T11:22:58.411Z,963.60
2022-10-28T11:25:24.764Z,963.58
2022-10-28T11:27:55.335Z,963.57
2022-10-28T11:30:17.445Z,963.56
2022-10-28T11:32:54.634Z,963.57
2022-10-28T11:35:10.154Z,963.54
2022-10-28T11:37:36.481Z,963.53
2022-10-28T11:40:02.809Z,963.44
2022-10-28T11:42:29.203Z,963.48
2022-10-28T11:44:55.677Z,963.46
2022-10-28T11:47:21.875Z,963.36
2022-10-28T11:49:48.226Z,963.40
2022-10-28T11:52:14.565Z,963.38
2022-10-28T11:54:40.886Z,963.36
2022-10-28T11:57:07.252Z,963.29
2022-10-28T11:59:33.569Z,963.29
2022-10-28T12:02:00.014Z,963.27
2022-10-28T12:04:26.255Z,963.29
2022-10-28T12:06:52.605Z,963.32
2022-10-28T12:09:19.031Z,963.30
2022-10-28T12:11:45.422Z,963.27
2022-10-28T12:14:11.716Z,963.27
2022-10-28T12:16:38.091Z,963.18
2022-10-28T12:19:04.432Z,963.14
2022-10-28T12:21:30.857Z,963.22
2022-10-28T12:23:57.084Z,963.21
2022-10-28T12:26:23.402Z,963.22
2022-10-28T12:28:49.775Z,963.12
2022-10-28T12:31:16.124Z,963.15
2022-10-28T12:33:42.448Z,963.13
2022-10-28T12:36:08.788Z,963.13
2022-10-28T12:38:35.114Z,963.13
2022-10-28T12:41:01.454Z,963.02
2022-10-28T12:43:27.808Z,963.00
2022-10-28T12:45:54.148Z,963.01
2022-10-28T12:48:20.518Z,963.04
2022-10-28T12:50:46.883Z,962.96
2022-10-28T12:53:13.222Z,962.97
2022-10-28T12:55:39.579Z,962.91
2022-10-28T12:58:05.908Z,962.96
2022-10-28T13:00:32.250Z,962.91
2022-10-28T13:02:58.606Z,962.95
2022-10-28T13:05:24.928Z,962.89
2022-10-28T13:07:53.544Z,962.90
2022-10-28T13:10:17.620Z,962.89
2022-10-28T13:12:43.918Z,962.88
2022-10-28T13:15:10.349Z,962.91
2022-10-28T13:17:36.578Z,962.91
2022-10-28T13:20:02.925Z,962.85
2022-10-28T13:22:29.275Z,962.83
2022-10-28T13:24:55.594Z,962.82
2022-10-28T13:27:22.021Z,962.85
2022-10-28T13:29:48.305Z,962.77
2022-10-28T13:32:14.640Z,962.75
2022-10-28T13:34:40.963Z,962.74
2022-10-28T13:37:07.313Z,962.71
2022-10-28T13:39:33.655Z,962.73
2022-10-28T13:41:59.977Z,962.71
2022-10-28T13:44:26.331Z,962.75
2022-10-28T13:46:52.667Z,962.70
2022-10-28T13:49:19.011Z,962.74
2022-10-28T13:51:45.330Z,962.77
2022-10-28T13:54:11.678Z,962.72
2022-10-28T13:56:38.091Z,962.73
2022-10-28T13:59:04.319Z,962.66
2022-10-28T14:01:30.852Z,962.73
2022-10-28T14:03:57.054Z,962.71
2022-10-28T14:06:23.414Z,962.67
2022-10-28T14:08:49.751Z,962.65
2022-10-28T14:11:16.096Z,962.67
2022-10-28T14:13:42.441Z,962.61
2022-10-28T14:16:11.695Z,962.63
2022-10-28T14:18:43.826Z,962.58
2022-10-28T14:21:01.750Z,962.63
2022-10-28T14:23:27.830Z,962.61
2022-10-28T14:25:54.179Z,962.57
2022-10-28T14:28:20.526Z,962.57
2022-10-28T14:30:46.862Z,962.56
2022-10-28T14:33:13.215Z,962.54
2022-10-28T14:35:39.566Z,962.52
2022-10-28T14:38:05.912Z,962.53
2022-10-28T14:40:32.268Z,962.53
2022-10-28T14:42:58.613Z,962.51
2022-10-28T14:45:24.934Z,962.52
2022-10-28T14:47:51.334Z,962.57
2022-10-28T14:50:17.579Z,962.50
2022-10-28T14:52:43.944Z,962.49
2022-10-28T14:55:10.294Z,962.52
2022-10-28T14:57:36.627Z,962.52
2022-10-28T15:00:02.967Z,962.53
2022-10-28T15:02:29.411Z,962.50
2022-10-28T15:04:55.654Z,962.48
2022-10-28T15:07:21.979Z,962.43
2022-10-28T15:09:48.323Z,962.44
2022-10-28T15:12:14.698Z,962.50
2022-10-28T15:14:41.045Z,962.46
2022-10-28T15:17:07.371Z,962.46
2022-10-28T15:19:33.713Z,962.47
2022-10-28T15:22:00.049Z,962.51
2022-10-28T15:24:26.391Z,962.52
2022-10-28T15:26:52.741Z,962.55
2022-10-28T15:29:19.117Z,962.49
2022-10-28T15:31:45.439Z,962.56
2022-10-28T15:34:11.761Z,962.52
2022-10-28T15:36:38.176Z,962.51
2022-10-28T15:39:04.430Z,962.50
2022-10-28T15:41:30.762Z,962.56
2022-10-28T15:43:57.143Z,962.58
2022-10-28T15:46:23.469Z,962.59
2022-10-28T15:48:49.826Z,962.59
2022-10-28T15:51:16.189Z,962.66
2022-10-28T15:53:42.543Z,962.65
2022-10-28T15:56:08.885Z,962.65
2022-10-28T15:58:35.231Z,962.67
2022-10-28T16:01:01.696Z,962.67
2022-10-28T16:05:54.300Z,962.73
2022-10-28T16:08:20.639Z,962.71
2022-10-28T16:10:46.961Z,962.70
2022-10-28T16:13:13.306Z,962.80
2022-10-28T16:15:39.689Z,962.80
2022-10-28T16:18:06.022Z,962.87
2022-10-28T16:20:32.438Z,962.94
2022-10-28T16:22:58.712Z,962.97
2022-10-28T16:25:25.100Z,962.93
2022-10-28T16:27:51.679Z,962.87
2022-10-28T16:30:17.822Z,962.92
2022-10-28T16:32:44.143Z,962.92
2022-10-28T16:35:10.466Z,962.93
2022-10-28T16:37:40.416Z,962.96
2022-10-28T16:40:03.186Z,962.93
2022-10-28T16:42:29.530Z,962.99
2022-10-28T16:44:55.853Z,963.01
2022-10-28T16:47:22.187Z,963.05
2022-10-28T16:49:52.392Z,963.08
2022-10-28T16:52:14.852Z,963.04
2022-10-28T16:54:41.205Z,963.08
2022-10-28T16:57:07.547Z,963.07
2022-10-28T16:59:33.869Z,963.15
2022-10-28T17:02:00.353Z,963.16
2022-10-28T17:04:26.636Z,963.20
2022-10-28T17:06:52.975Z,963.19
2022-10-28T17:09:19.298Z,963.16
2022-10-28T17:11:45.653Z,963.17
2022-10-28T17:14:12.016Z,963.15
2022-10-28T17:16:40.685Z,963.13
2022-10-28T17:19:04.701Z,963.15
2022-10-28T17:21:31.037Z,963.23
2022-10-28T17:23:57.378Z,963.23
2022-10-28T17:26:23.688Z,963.24
2022-10-28T17:28:50.029Z,963.27
2022-10-28T17:31:19.184Z,963.22
2022-10-28T17:33:42.777Z,963.22
2022-10-28T17:36:09.146Z,963.24
2022-10-28T17:38:35.541Z,963.31
2022-10-28T17:41:01.859Z,963.27
2022-10-28T17:43:28.190Z,963.33
2022-10-28T17:45:54.516Z,963.37
2022-10-28T17:48:20.919Z,963.35
2022-10-28T17:50:47.227Z,963.34
2022-10-28T17:53:13.568Z,963.36
2022-10-28T17:55:39.904Z,963.28
2022-10-28T17:58:06.291Z,963.32
2022-10-28T18:00:32.616Z,963.32
2022-10-28T18:02:59.097Z,963.28
2022-10-28T18:05:25.389Z,963.32
2022-10-28T18:07:51.971Z,963.27
2022-10-28T18:10:18.106Z,963.25
2022-10-28T18:12:44.447Z,963.29
2022-10-28T18:15:10.788Z,963.25
2022-10-28T18:17:37.133Z,963.35
2022-10-28T18:20:03.482Z,963.23
2022-10-28T18:22:29.851Z,963.24
2022-10-28T18:24:56.237Z,963.21
2022-10-28T18:27:22.600Z,963.16
2022-10-28T18:29:49.005Z,963.20
2022-10-28T18:32:15.346Z,963.15
2022-10-28T18:34:41.731Z,963.17
2022-10-28T18:37:08.013Z,963.22
2022-10-28T18:39:34.349Z,963.19
2022-10-28T18:42:00.693Z,963.28
2022-10-28T18:44:27.039Z,963.28
2022-10-28T18:46:53.376Z,963.26
2022-10-28T18:49:19.722Z,963.32
2022-10-28T18:51:46.447Z,963.34
2022-10-28T18:54:12.787Z,963.35
2022-10-28T18:56:39.114Z,963.38
2022-10-28T18:59:05.448Z,963.42
2022-10-28T19:01:31.973Z,963.39
2022-10-28T19:03:58.111Z,963.36
2022-10-28T19:06:24.565Z,963.38
2022-10-28T19:08:50.881Z,963.38
2022-10-28T19:11:17.225Z,963.42
2022-10-28T19:13:43.558Z,963.40
2022-10-28T19:16:09.983Z,963.44
2022-10-28T19:18:36.227Z,963.43
2022-10-28T19:21:02.629Z,963.48
2022-10-28T19:23:28.989Z,963.45
2022-10-28T19:25:55.318Z,963.48
2022-10-28T19:28:21.640Z,963.57
2022-10-28T19:30:47.987Z,963.57
2022-10-28T19:33:14.398Z,963.58
2022-10-28T19:35:40.723Z,963.55
2022-10-28T19:38:07.068Z,963.63
2022-10-28T19:40:33.537Z,963.68
2022-10-28T19:42:59.916Z,963.64
2022-10-28T19:45:26.253Z,963.72
2022-10-28T19:47:52.904Z,963.71
2022-10-28T19:50:18.965Z,963.82
2022-10-28T19:52:45.311Z,963.79
2022-10-28T19:55:14.901Z,963.81
2022-10-28T19:57:37.991Z,963.79
2022-10-28T20:00:04.357Z,963.85
2022-10-28T20:02:30.810Z,963.80
2022-10-28T20:04:57.058Z,963.82
2022-10-28T20:07:23.409Z,963.87
2022-10-28T20:09:49.821Z,963.89
2022-10-28T20:12:16.089Z,963.93
2022-10-28T20:14:42.417Z,963.91
2022-10-28T20:17:08.740Z,963.90
2022-10-28T20:19:35.131Z,963.85
2022-10-28T20:22:01.446Z,963.88
2022-10-28T20:24:27.796Z,963.87
2022-10-28T20:26:54.145Z,963.87
2022-10-28T20:29:20.491Z,963.89
2022-10-28T20:31:46.811Z,963.91
2022-10-28T20:34:13.168Z,963.94
2022-10-28T20:36:39.490Z,963.89
2022-10-28T20:39:05.815Z,963.94
2022-10-28T20:41:32.193Z,963.90
2022-10-28T20:43:58.514Z,963.95
2022-10-28T20:46:24.838Z,963.95
2022-10-28T20:48:51.165Z,963.93
2022-10-28T20:51:17.504Z,964.00
2022-10-28T20:53:43.847Z,963.92
2022-10-28T20:56:10.181Z,964.00
2022-10-28T20:58:36.512Z,963.95
2022-10-28T21:01:02.831Z,963.91
2022-10-28T21:03:29.223Z,963.97
2022-10-28T21:05:55.548Z,963.94
2022-10-28T21:08:21.897Z,963.95
2022-10-28T21:10:48.240Z,963.99
2022-10-28T21:13:14.686Z,963.92
2022-10-28T21:15:41.006Z,963.89
2022-10-28T21:18:07.412Z,963.98
2022-10-28T21:20:33.759Z,963.93
2022-10-28T21:23:00.089Z,963.91
2022-10-28T21:25:26.427Z,963.85
2022-10-28T21:27:52.791Z,963.85
2022-10-28T21:30:19.156Z,963.83
2022-10-28T21:32:45.435Z,963.86
2022-10-28T21:35:11.792Z,963.92
2022-10-28T21:37:38.117Z,963.90
2022-10-28T21:40:04.524Z,963.86
2022-10-28T21:42:30.846Z,963.92
2022-10-28T21:44:57.195Z,963.93
2022-10-28T21:47:23.541Z,963.92
2022-10-28T21:49:49.877Z,963.95
2022-10-28T21:52:16.208Z,963.88
2022-10-28T21:54:42.598Z,963.90
2022-10-28T21:57:08.906Z,963.77
2022-10-28T21:59:35.223Z,963.82
2022-10-28T22:02:01.664Z,963.84
2022-10-28T22:04:27.896Z,963.85
2022-10-28T22:06:54.241Z,963.79
2022-10-28T22:09:20.580Z,963.78
2022-10-28T22:11:46.903Z,963.82
2022-10-28T22:14:13.286Z,963.86
2022-10-28T22:16:39.608Z,963.87
2022-10-28T22:19:05.955Z,963.82
2022-10-28T22:21:32.297Z,963.78
2022-10-28T22:23:58.634Z,963.75
2022-10-28T22:26:25.018Z,963.80
2022-10-28T22:28:51.332Z,963.81
2022-10-28T22:31:17.658Z,963.80
2022-10-28T22:33:44.066Z,963.85
2022-10-28T22:36:10.334Z,963.82
2022-10-28T22:38:36.656Z,963.78
2022-10-28T22:41:02.984Z,963.74
2022-10-28T22:43:29.332Z,963.82
2022-10-28T22:45:55.676Z,963.76
2022-10-28T22:48:21.995Z,963.78
2022-10-28T22:50:48.333Z,963.88
2022-10-28T22:53:14.655Z,963.75
2022-10-28T22:55:40.981Z,963.79
2022-10-28T22:58:07.327Z,963.77
2022-10-28T23:00:33.646Z,963.78
2022-10-28T23:03:00.415Z,963.79
2022-10-28T23:05:26.335Z,963.77
2022-10-28T23:07:52.678Z,963.78
2022-10-28T23:10:19.044Z,963.69
2022-10-28T23:12:45.384Z,963.81
2022-10-28T23:15:11.725Z,963.72
2022-10-28T23:17:38.043Z,963.75
2022-10-28T23:20:04.387Z,963.79
2022-10-28T23:22:30.762Z,963.70
2022-10-28T23:24:57.107Z,963.72
2022-10-28T23:27:23.448Z,963.71
2022-10-28T23:29:49.802Z,963.70
2022-10-28T23:32:16.129Z,963.68
2022-10-28T23:34:42.453Z,963.71
2022-10-28T23:37:08.775Z,963.66
2022-10-28T23:39:35.124Z,963.71
2022-10-28T23:42:01.460Z,963.76
2022-10-28T23:44:27.782Z,963.79
2022-10-28T23:46:54.121Z,963.75
2022-10-28T23:49:20.458Z,963.68
2022-10-28T23:51:46.808Z,963.76
2022-10-28T23:54:13.132Z,963.76
2022-10-28T23:56:39.474Z,963.78
2022-10-28T23:59:05.784Z,963.79
